sensor_id;sensor_type;location;lat;lon;timestamp;temperature;humidity
53653;DHT22;39553;52.954;5.932;2022-11-03T00:01:31;11.60;99.90
53653;DHT22;39553;52.954;5.932;2022-11-03T00:03:57;11.60;99.90
53653;DHT22;39553;52.954;5.932;2022-11-03T00:06:22;11.60;99.90
53653;DHT22;39553;52.954;5.932;2022-11-03T00:08:48;11.60;99.90
53653;DHT22;39553;52.954;5.932;2022-11-03T00:11:13;11.60;99.90
53653;DHT22;39553;52.954;5.932;2022-11-03T00:13:40;11.50;99.90
53653;DHT22;39553;52.954;5.932;2022-11-03T00:16:07;11.50;99.90
53653;DHT22;39553;52.954;5.932;2022-11-03T00:18:33;11.40;99.90
53653;DHT22;39553;52.954;5.932;2022-11-03T00:21:03;11.40;99.90
53653;DHT22;39553;52.954;5.932;2022-11-03T00:23:30;11.40;99.90
53653;DHT22;39553;52.954;5.932;2022-11-03T00:26:15;11.30;99.90
53653;DHT22;39553;52.954;5.932;2022-11-03T00:28:42;11.30;99.90
53653;DHT22;39553;52.954;5.932;2022-11-03T00:31:12;11.20;99.90
53653;DHT22;39553;52.954;5.932;2022-11-03T00:33:38;11.10;99.90
53653;DHT22;39553;52.954;5.932;2022-11-03T00:36:04;11.10;99.90
53653;DHT22;39553;52.954;5.932;2022-11-03T00:38:30;11.10;99.90
53653;DHT22;39553;52.954;5.932;2022-11-03T00:40:56;11.00;99.90
53653;DHT22;39553;52.954;5.932;2022-11-03T00:43:22;10.90;99.90
53653;DHT22;39553;52.954;5.932;2022-11-03T00:45:48;10.90;99.90
53653;DHT22;39553;52.954;5.932;2022-11-03T00:48:14;10.90;99.90
53653;DHT22;39553;52.954;5.932;2022-11-03T00:53:42;10.90;99.90
53653;DHT22;39553;52.954;5.932;2022-11-03T00:56:09;10.90;99.90
53653;DHT22;39553;52.954;5.932;2022-11-03T00:58:35;10.90;99.90
53653;DHT22;39553;52.954;5.932;2022-11-03T01:01:04;10.80;99.90
53653;DHT22;39553;52.954;5.932;2022-11-03T01:03:32;10.80;99.90
53653;DHT22;39553;52.954;5.932;2022-11-03T01:05:58;10.80;99.90
53653;DHT22;39553;52.954;5.932;2022-11-03T01:08:42;10.80;99.90
53653;DHT22;39553;52.954;5.932;2022-11-03T01:11:10;11.00;99.90
53653;DHT22;39553;52.954;5.932;2022-11-03T01:13:54;10.80;99.90
53653;DHT22;39553;52.954;5.932;2022-11-03T01:16:20;10.80;99.90
53653;DHT22;39553;52.954;5.932;2022-11-03T01:18:46;10.80;99.90
53653;DHT22;39553;52.954;5.932;2022-11-03T01:21:11;10.80;99.90
53653;DHT22;39553;52.954;5.932;2022-11-03T01:23:37;10.80;99.90
53653;DHT22;39553;52.954;5.932;2022-11-03T01:26:03;10.80;99.90
53653;DHT22;39553;52.954;5.932;2022-11-03T01:28:30;10.80;99.90
53653;DHT22;39553;52.954;5.932;2022-11-03T01:31:00;10.70;99.90
53653;DHT22;39553;52.954;5.932;2022-11-03T01:33:26;10.80;99.90
53653;DHT22;39553;52.954;5.932;2022-11-03T01:35:52;10.70;99.90
53653;DHT22;39553;52.954;5.932;2022-11-03T01:38:17;10.70;99.90
53653;DHT22;39553;52.954;5.932;2022-11-03T01:40:43;10.70;99.90
53653;DHT22;39553;52.954;5.932;2022-11-03T01:43:16;10.70;99.90
53653;DHT22;39553;52.954;5.932;2022-11-03T01:45:42;10.70;99.90
53653;DHT22;39553;52.954;5.932;2022-11-03T01:48:08;10.70;99.90
53653;DHT22;39553;52.954;5.932;2022-11-03T01:50:35;10.70;99.90
53653;DHT22;39553;52.954;5.932;2022-11-03T01:53:01;10.70;99.90
53653;DHT22;39553;52.954;5.932;2022-11-03T01:55:33;10.70;99.90
53653;DHT22;39553;52.954;5.932;2022-11-03T01:58:02;10.70;99.90
53653;DHT22;39553;52.954;5.932;2022-11-03T02:00:30;10.60;99.90
53653;DHT22;39553;52.954;5.932;2022-11-03T02:02:55;10.60;99.90
53653;DHT22;39553;52.954;5.932;2022-11-03T02:05:21;10.50;99.90
53653;DHT22;39553;52.954;5.932;2022-11-03T02:08:02;10.60;99.90
53653;DHT22;39553;52.954;5.932;2022-11-03T02:10:28;10.50;99.90
53653;DHT22;39553;52.954;5.932;2022-11-03T02:12:54;10.60;99.90
53653;DHT22;39553;52.954;5.932;2022-11-03T02:15:20;10.40;99.90
53653;DHT22;39553;52.954;5.932;2022-11-03T02:17:47;10.30;99.90
53653;DHT22;39553;52.954;5.932;2022-11-03T02:20:15;10.30;99.90
53653;DHT22;39553;52.954;5.932;2022-11-03T02:22:45;10.30;99.90
53653;DHT22;39553;52.954;5.932;2022-11-03T02:27:59;10.20;99.90
53653;DHT22;39553;52.954;5.932;2022-11-03T02:30:26;10.10;99.90
53653;DHT22;39553;52.954;5.932;2022-11-03T02:33:09;10.00;99.90
53653;DHT22;39553;52.954;5.932;2022-11-03T02:35:47;10.00;99.90
53653;DHT22;39553;52.954;5.932;2022-11-03T02:38:14;10.00;99.90
53653;DHT22;39553;52.954;5.932;2022-11-03T02:40:45;9.90;99.90
53653;DHT22;39553;52.954;5.932;2022-11-03T02:43:12;9.90;99.90
53653;DHT22;39553;52.954;5.932;2022-11-03T02:45:39;9.90;99.90
53653;DHT22;39553;52.954;5.932;2022-11-03T02:48:04;9.80;99.90
53653;DHT22;39553;52.954;5.932;2022-11-03T02:50:31;9.80;99.90
53653;DHT22;39553;52.954;5.932;2022-11-03T02:52:57;9.80;99.90
53653;DHT22;39553;52.954;5.932;2022-11-03T02:56:24;9.70;99.90
53653;DHT22;39553;52.954;5.932;2022-11-03T03:04:00;9.70;99.90
53653;DHT22;39553;52.954;5.932;2022-11-03T03:06:29;9.70;99.90
53653;DHT22;39553;52.954;5.932;2022-11-03T03:08:58;9.60;99.90
53653;DHT22;39553;52.954;5.932;2022-11-03T03:11:24;9.60;99.90
53653;DHT22;39553;52.954;5.932;2022-11-03T03:14:12;9.60;99.90
53653;DHT22;39553;52.954;5.932;2022-11-03T03:17:22;9.60;99.90
53653;DHT22;39553;52.954;5.932;2022-11-03T03:19:43;9.50;99.90
53653;DHT22;39553;52.954;5.932;2022-11-03T03:22:55;9.50;99.90
53653;DHT22;39553;52.954;5.932;2022-11-03T03:25:08;9.50;99.90
53653;DHT22;39553;52.954;5.932;2022-11-03T03:27:35;9.50;99.90
53653;DHT22;39553;52.954;5.932;2022-11-03T03:30:04;9.50;99.90
53653;DHT22;39553;52.954;5.932;2022-11-03T03:32:32;9.50;99.90
53653;DHT22;39553;52.954;5.932;2022-11-03T03:34:58;9.50;99.90
53653;DHT22;39553;52.954;5.932;2022-11-03T03:37:25;9.50;99.90
53653;DHT22;39553;52.954;5.932;2022-11-03T03:39:51;9.50;99.90
53653;DHT22;39553;52.954;5.932;2022-11-03T03:42:17;9.50;99.90
53653;DHT22;39553;52.954;5.932;2022-11-03T03:44:44;9.50;99.90
53653;DHT22;39553;52.954;5.932;2022-11-03T03:47:12;9.50;99.90
53653;DHT22;39553;52.954;5.932;2022-11-03T03:49:39;9.60;99.90
53653;DHT22;39553;52.954;5.932;2022-11-03T03:52:05;9.50;99.90
53653;DHT22;39553;52.954;5.932;2022-11-03T03:54:30;9.60;99.90
53653;DHT22;39553;52.954;5.932;2022-11-03T03:57:00;9.60;99.90
53653;DHT22;39553;52.954;5.932;2022-11-03T03:59:26;9.60;99.90
53653;DHT22;39553;52.954;5.932;2022-11-03T04:01:52;9.80;99.90
53653;DHT22;39553;52.954;5.932;2022-11-03T04:04:18;9.70;99.90
53653;DHT22;39553;52.954;5.932;2022-11-03T04:06:43;9.80;99.90
53653;DHT22;39553;52.954;5.932;2022-11-03T04:09:09;9.80;99.90
53653;DHT22;39553;52.954;5.932;2022-11-03T04:11:34;9.90;99.90
53653;DHT22;39553;52.954;5.932;2022-11-03T04:14:26;9.90;99.90
53653;DHT22;39553;52.954;5.932;2022-11-03T04:17:17;9.90;99.90
53653;DHT22;39553;52.954;5.932;2022-11-03T04:20:02;10.00;99.90
53653;DHT22;39553;52.954;5.932;2022-11-03T04:22:46;10.00;99.90
53653;DHT22;39553;52.954;5.932;2022-11-03T04:25:11;10.00;99.90
53653;DHT22;39553;52.954;5.932;2022-11-03T04:27:37;10.00;99.90
53653;DHT22;39553;52.954;5.932;2022-11-03T04:30:15;9.90;99.90
53653;DHT22;39553;52.954;5.932;2022-11-03T04:32:42;10.00;99.90
53653;DHT22;39553;52.954;5.932;2022-11-03T04:35:26;9.90;99.90
53653;DHT22;39553;52.954;5.932;2022-11-03T04:40:37;10.00;99.90
53653;DHT22;39553;52.954;5.932;2022-11-03T04:43:03;10.00;99.90
53653;DHT22;39553;52.954;5.932;2022-11-03T04:45:34;10.00;99.90
53653;DHT22;39553;52.954;5.932;2022-11-03T04:48:08;10.10;99.90
53653;DHT22;39553;52.954;5.932;2022-11-03T04:50:36;10.10;99.90
53653;DHT22;39553;52.954;5.932;2022-11-03T04:53:01;10.20;99.90
53653;DHT22;39553;52.954;5.932;2022-11-03T04:55:27;10.20;99.90
53653;DHT22;39553;52.954;5.932;2022-11-03T04:57:56;10.30;99.90
53653;DHT22;39553;52.954;5.932;2022-11-03T05:00:23;10.30;99.90
53653;DHT22;39553;52.954;5.932;2022-11-03T05:02:49;10.30;99.90
53653;DHT22;39553;52.954;5.932;2022-11-03T05:05:19;10.30;99.90
53653;DHT22;39553;52.954;5.932;2022-11-03T05:07:49;10.30;99.90
53653;DHT22;39553;52.954;5.932;2022-11-03T05:10:20;10.30;99.90
53653;DHT22;39553;52.954;5.932;2022-11-03T05:12:46;10.30;99.90
53653;DHT22;39553;52.954;5.932;2022-11-03T05:15:28;10.30;99.90
53653;DHT22;39553;52.954;5.932;2022-11-03T05:17:56;10.10;99.90
53653;DHT22;39553;52.954;5.932;2022-11-03T05:20:30;10.20;99.90
53653;DHT22;39553;52.954;5.932;2022-11-03T05:22:56;10.20;99.90
53653;DHT22;39553;52.954;5.932;2022-11-03T05:27:56;10.00;99.90
53653;DHT22;39553;52.954;5.932;2022-11-03T05:30:22;10.00;99.90
53653;DHT22;39553;52.954;5.932;2022-11-03T05:32:48;9.90;99.90
53653;DHT22;39553;52.954;5.932;2022-11-03T05:35:20;9.90;99.90
53653;DHT22;39553;52.954;5.932;2022-11-03T05:37:46;9.90;99.90
53653;DHT22;39553;52.954;5.932;2022-11-03T05:40:19;9.90;99.90
53653;DHT22;39553;52.954;5.932;2022-11-03T05:42:46;9.90;99.90
53653;DHT22;39553;52.954;5.932;2022-11-03T05:45:19;9.90;99.90
53653;DHT22;39553;52.954;5.932;2022-11-03T05:47:45;9.90;99.90
53653;DHT22;39553;52.954;5.932;2022-11-03T05:50:19;9.80;99.90
53653;DHT22;39553;52.954;5.932;2022-11-03T05:52:45;9.80;99.90
53653;DHT22;39553;52.954;5.932;2022-11-03T05:55:33;9.80;99.90
53653;DHT22;39553;52.954;5.932;2022-11-03T05:57:58;9.80;99.90
53653;DHT22;39553;52.954;5.932;2022-11-03T06:00:28;9.80;99.90
53653;DHT22;39553;52.954;5.932;2022-11-03T06:02:55;9.80;99.90
53653;DHT22;39553;52.954;5.932;2022-11-03T06:05:22;9.70;99.90
53653;DHT22;39553;52.954;5.932;2022-11-03T06:07:48;9.70;99.90
53653;DHT22;39553;52.954;5.932;2022-11-03T06:10:23;9.70;99.90
53653;DHT22;39553;52.954;5.932;2022-11-03T06:12:49;9.70;99.90
53653;DHT22;39553;52.954;5.932;2022-11-03T06:15:31;9.70;99.90
53653;DHT22;39553;52.954;5.932;2022-11-03T06:17:58;9.70;99.90
53653;DHT22;39553;52.954;5.932;2022-11-03T06:20:24;9.80;99.90
53653;DHT22;39553;52.954;5.932;2022-11-03T06:22:50;9.70;99.90
53653;DHT22;39553;52.954;5.932;2022-11-03T06:25:25;9.80;99.90
53653;DHT22;39553;52.954;5.932;2022-11-03T06:27:51;9.80;99.90
53653;DHT22;39553;52.954;5.932;2022-11-03T06:32:43;9.80;99.90
53653;DHT22;39553;52.954;5.932;2022-11-03T06:35:08;9.80;99.90
53653;DHT22;39553;52.954;5.932;2022-11-03T06:37:35;9.80;99.90
53653;DHT22;39553;52.954;5.932;2022-11-03T06:40:24;9.80;99.90
53653;DHT22;39553;52.954;5.932;2022-11-03T06:42:51;9.80;99.90
53653;DHT22;39553;52.954;5.932;2022-11-03T06:47:42;9.80;99.90
53653;DHT22;39553;52.954;5.932;2022-11-03T06:50:24;9.80;99.90
53653;DHT22;39553;52.954;5.932;2022-11-03T06:52:50;9.80;99.90
53653;DHT22;39553;52.954;5.932;2022-11-03T06:57:43;9.80;99.90
53653;DHT22;39553;52.954;5.932;2022-11-03T07:00:20;10.00;99.90
53653;DHT22;39553;52.954;5.932;2022-11-03T07:02:58;9.90;99.90
53653;DHT22;39553;52.954;5.932;2022-11-03T07:05:27;10.00;99.90
53653;DHT22;39553;52.954;5.932;2022-11-03T07:07:56;10.00;99.90
53653;DHT22;39553;52.954;5.932;2022-11-03T07:10:24;10.00;99.90
53653;DHT22;39553;52.954;5.932;2022-11-03T07:12:49;10.10;99.90
53653;DHT22;39553;52.954;5.932;2022-11-03T07:15:18;10.10;99.90
53653;DHT22;39553;52.954;5.932;2022-11-03T07:17:45;10.20;99.90
53653;DHT22;39553;52.954;5.932;2022-11-03T07:20:15;10.20;99.90
53653;DHT22;39553;52.954;5.932;2022-11-03T07:22:41;10.30;99.90
53653;DHT22;39553;52.954;5.932;2022-11-03T07:25:08;10.30;99.90
53653;DHT22;39553;52.954;5.932;2022-11-03T07:27:38;10.40;99.90
53653;DHT22;39553;52.954;5.932;2022-11-03T07:30:15;10.40;99.90
53653;DHT22;39553;52.954;5.932;2022-11-03T07:32:42;10.40;99.90
53653;DHT22;39553;52.954;5.932;2022-11-03T07:37:39;10.50;99.90
53653;DHT22;39553;52.954;5.932;2022-11-03T07:40:10;10.60;99.90
53653;DHT22;39553;52.954;5.932;2022-11-03T07:42:36;10.60;99.90
53653;DHT22;39553;52.954;5.932;2022-11-03T07:45:04;10.60;99.90
53653;DHT22;39553;52.954;5.932;2022-11-03T07:47:41;10.70;99.90
53653;DHT22;39553;52.954;5.932;2022-11-03T07:50:12;10.70;99.90
53653;DHT22;39553;52.954;5.932;2022-11-03T07:52:39;10.70;99.90
53653;DHT22;39553;52.954;5.932;2022-11-03T07:55:04;10.80;99.90
53653;DHT22;39553;52.954;5.932;2022-11-03T07:57:35;10.90;99.90
53653;DHT22;39553;52.954;5.932;2022-11-03T08:00:05;10.90;99.90
53653;DHT22;39553;52.954;5.932;2022-11-03T08:02:47;11.00;99.90
53653;DHT22;39553;52.954;5.932;2022-11-03T08:05:14;11.10;99.90
53653;DHT22;39553;52.954;5.932;2022-11-03T08:07:39;11.10;99.90
53653;DHT22;39553;52.954;5.932;2022-11-03T08:10:05;11.20;99.90
53653;DHT22;39553;52.954;5.932;2022-11-03T08:12:31;11.30;99.90
53653;DHT22;39553;52.954;5.932;2022-11-03T08:14:57;11.30;99.90
53653;DHT22;39553;52.954;5.932;2022-11-03T08:17:22;11.40;99.90
53653;DHT22;39553;52.954;5.932;2022-11-03T08:19:48;11.50;99.90
53653;DHT22;39553;52.954;5.932;2022-11-03T08:22:14;11.50;99.90
53653;DHT22;39553;52.954;5.932;2022-11-03T08:24:39;11.60;99.90
53653;DHT22;39553;52.954;5.932;2022-11-03T08:27:05;11.60;99.90
53653;DHT22;39553;52.954;5.932;2022-11-03T08:29:30;11.70;99.90
53653;DHT22;39553;52.954;5.932;2022-11-03T08:31:56;11.70;99.90
53653;DHT22;39553;52.954;5.932;2022-11-03T08:34:22;11.70;99.90
53653;DHT22;39553;52.954;5.932;2022-11-03T08:36:47;11.70;99.90
53653;DHT22;39553;52.954;5.932;2022-11-03T08:39:13;11.70;99.90
53653;DHT22;39553;52.954;5.932;2022-11-03T08:41:38;11.80;99.90
53653;DHT22;39553;52.954;5.932;2022-11-03T08:44:04;11.80;99.90
53653;DHT22;39553;52.954;5.932;2022-11-03T08:46:30;11.80;99.90
53653;DHT22;39553;52.954;5.932;2022-11-03T08:48:56;11.90;99.90
53653;DHT22;39553;52.954;5.932;2022-11-03T08:51:21;11.90;99.90
53653;DHT22;39553;52.954;5.932;2022-11-03T08:53:47;12.00;99.90
53653;DHT22;39553;52.954;5.932;2022-11-03T08:56:18;12.00;99.90
53653;DHT22;39553;52.954;5.932;2022-11-03T08:58:45;12.10;99.90
53653;DHT22;39553;52.954;5.932;2022-11-03T09:01:10;12.10;99.90
53653;DHT22;39553;52.954;5.932;2022-11-03T09:03:36;12.20;99.90
53653;DHT22;39553;52.954;5.932;2022-11-03T09:06:02;12.30;99.90
53653;DHT22;39553;52.954;5.932;2022-11-03T09:08:28;12.30;99.90
53653;DHT22;39553;52.954;5.932;2022-11-03T09:10:53;12.40;99.90
53653;DHT22;39553;52.954;5.932;2022-11-03T09:13:19;12.40;99.90
53653;DHT22;39553;52.954;5.932;2022-11-03T09:15:45;12.40;99.90
53653;DHT22;39553;52.954;5.932;2022-11-03T09:18:10;12.40;99.90
53653;DHT22;39553;52.954;5.932;2022-11-03T09:20:36;12.40;99.90
53653;DHT22;39553;52.954;5.932;2022-11-03T09:23:01;12.50;99.90
53653;DHT22;39553;52.954;5.932;2022-11-03T09:25:27;12.50;99.90
53653;DHT22;39553;52.954;5.932;2022-11-03T09:27:52;12.50;99.90
53653;DHT22;39553;52.954;5.932;2022-11-03T09:30:18;12.50;99.90
53653;DHT22;39553;52.954;5.932;2022-11-03T09:32:45;12.50;99.90
53653;DHT22;39553;52.954;5.932;2022-11-03T09:35:10;12.60;99.90
53653;DHT22;39553;52.954;5.932;2022-11-03T09:37:39;12.60;99.90
53653;DHT22;39553;52.954;5.932;2022-11-03T09:40:04;12.70;99.90
53653;DHT22;39553;52.954;5.932;2022-11-03T09:42:31;12.70;99.90
53653;DHT22;39553;52.954;5.932;2022-11-03T09:44:58;12.80;99.90
53653;DHT22;39553;52.954;5.932;2022-11-03T09:47:28;12.80;99.90
53653;DHT22;39553;52.954;5.932;2022-11-03T09:49:55;12.80;99.90
53653;DHT22;39553;52.954;5.932;2022-11-03T09:52:22;12.90;99.90
53653;DHT22;39553;52.954;5.932;2022-11-03T09:54:48;12.90;99.90
53653;DHT22;39553;52.954;5.932;2022-11-03T09:57:15;12.90;99.90
53653;DHT22;39553;52.954;5.932;2022-11-03T09:59:42;13.00;99.90
53653;DHT22;39553;52.954;5.932;2022-11-03T10:02:16;12.90;99.90
53653;DHT22;39553;52.954;5.932;2022-11-03T10:04:45;13.00;99.90
53653;DHT22;39553;52.954;5.932;2022-11-03T10:07:10;13.00;99.90
53653;DHT22;39553;52.954;5.932;2022-11-03T10:09:36;13.00;99.90
53653;DHT22;39553;52.954;5.932;2022-11-03T10:12:02;13.00;99.90
53653;DHT22;39553;52.954;5.932;2022-11-03T10:14:28;13.00;99.90
53653;DHT22;39553;52.954;5.932;2022-11-03T10:16:57;13.00;99.90
53653;DHT22;39553;52.954;5.932;2022-11-03T10:19:24;13.00;99.90
53653;DHT22;39553;52.954;5.932;2022-11-03T10:21:50;13.10;99.90
53653;DHT22;39553;52.954;5.932;2022-11-03T10:24:16;13.10;99.90
53653;DHT22;39553;52.954;5.932;2022-11-03T10:26:43;13.50;99.90
53653;DHT22;39553;52.954;5.932;2022-11-03T10:29:12;13.20;99.90
53653;DHT22;39553;52.954;5.932;2022-11-03T10:31:44;13.30;99.90
53653;DHT22;39553;52.954;5.932;2022-11-03T10:34:55;13.30;99.90
53653;DHT22;39553;52.954;5.932;2022-11-03T10:39:42;13.50;99.90
53653;DHT22;39553;52.954;5.932;2022-11-03T10:42:14;13.60;99.90
53653;DHT22;39553;52.954;5.932;2022-11-03T10:44:40;13.60;99.90
53653;DHT22;39553;52.954;5.932;2022-11-03T10:47:08;13.70;99.90
53653;DHT22;39553;52.954;5.932;2022-11-03T10:49:46;13.70;99.90
53653;DHT22;39553;52.954;5.932;2022-11-03T10:52:17;13.80;99.90
53653;DHT22;39553;52.954;5.932;2022-11-03T10:54:44;13.80;99.90
53653;DHT22;39553;52.954;5.932;2022-11-03T10:57:10;13.80;99.90
53653;DHT22;39553;52.954;5.932;2022-11-03T10:59:36;13.90;99.90
53653;DHT22;39553;52.954;5.932;2022-11-03T11:02:03;13.80;99.90
53653;DHT22;39553;52.954;5.932;2022-11-03T11:04:35;13.90;99.90
53653;DHT22;39553;52.954;5.932;2022-11-03T11:07:00;13.90;99.90
53653;DHT22;39553;52.954;5.932;2022-11-03T11:09:26;13.90;99.90
53653;DHT22;39553;52.954;5.932;2022-11-03T11:12:05;14.00;99.90
53653;DHT22;39553;52.954;5.932;2022-11-03T11:14:38;14.00;99.90
53653;DHT22;39553;52.954;5.932;2022-11-03T11:22:45;14.30;99.90
53653;DHT22;39553;52.954;5.932;2022-11-03T11:25:11;14.30;99.90
53653;DHT22;39553;52.954;5.932;2022-11-03T11:30:06;14.30;99.90
53653;DHT22;39553;52.954;5.932;2022-11-03T11:35:07;14.20;99.90
53653;DHT22;39553;52.954;5.932;2022-11-03T11:37:33;14.20;99.90
53653;DHT22;39553;52.954;5.932;2022-11-03T11:39:59;14.20;99.90
53653;DHT22;39553;52.954;5.932;2022-11-03T11:42:25;14.20;99.90
53653;DHT22;39553;52.954;5.932;2022-11-03T11:44:51;14.20;99.90
53653;DHT22;39553;52.954;5.932;2022-11-03T11:52:25;14.30;99.90
53653;DHT22;39553;52.954;5.932;2022-11-03T11:54:50;14.30;99.90
53653;DHT22;39553;52.954;5.932;2022-11-03T11:57:17;14.30;99.90
53653;DHT22;39553;52.954;5.932;2022-11-03T11:59:44;14.30;99.90
53653;DHT22;39553;52.954;5.932;2022-11-03T12:02:14;14.30;99.90
53653;DHT22;39553;52.954;5.932;2022-11-03T12:04:45;14.30;99.90
53653;DHT22;39553;52.954;5.932;2022-11-03T12:07:11;14.30;99.90
53653;DHT22;39553;52.954;5.932;2022-11-03T12:09:37;14.30;99.90
53653;DHT22;39553;52.954;5.932;2022-11-03T12:12:04;14.20;99.90
53653;DHT22;39553;52.954;5.932;2022-11-03T12:16:56;14.30;99.90
53653;DHT22;39553;52.954;5.932;2022-11-03T12:22:00;14.30;99.90
53653;DHT22;39553;52.954;5.932;2022-11-03T12:26:58;14.30;99.90
53653;DHT22;39553;52.954;5.932;2022-11-03T12:29:23;14.30;99.90
53653;DHT22;39553;52.954;5.932;2022-11-03T12:31:49;14.30;99.90
53653;DHT22;39553;52.954;5.932;2022-11-03T12:34:15;14.40;99.90
53653;DHT22;39553;52.954;5.932;2022-11-03T12:36:41;14.40;99.90
53653;DHT22;39553;52.954;5.932;2022-11-03T12:39:07;14.50;99.90
53653;DHT22;39553;52.954;5.932;2022-11-03T12:41:32;14.60;99.90
53653;DHT22;39553;52.954;5.932;2022-11-03T12:43:58;14.60;99.90
53653;DHT22;39553;52.954;5.932;2022-11-03T12:46:23;14.60;99.90
53653;DHT22;39553;52.954;5.932;2022-11-03T12:48:49;14.60;99.90
53653;DHT22;39553;52.954;5.932;2022-11-03T12:53:40;14.70;99.90
53653;DHT22;39553;52.954;5.932;2022-11-03T12:56:07;14.70;99.90
53653;DHT22;39553;52.954;5.932;2022-11-03T12:58:33;14.70;99.90
53653;DHT22;39553;52.954;5.932;2022-11-03T13:00:59;14.70;99.90
53653;DHT22;39553;52.954;5.932;2022-11-03T13:03:24;14.60;99.90
53653;DHT22;39553;52.954;5.932;2022-11-03T13:05:50;14.60;99.90
53653;DHT22;39553;52.954;5.932;2022-11-03T13:08:15;14.60;99.90
53653;DHT22;39553;52.954;5.932;2022-11-03T13:10:41;14.50;99.90
53653;DHT22;39553;52.954;5.932;2022-11-03T13:13:07;14.50;99.90
53653;DHT22;39553;52.954;5.932;2022-11-03T13:15:32;14.50;99.90
53653;DHT22;39553;52.954;5.932;2022-11-03T13:17:58;14.40;99.90
53653;DHT22;39553;52.954;5.932;2022-11-03T13:20:23;14.40;99.90
53653;DHT22;39553;52.954;5.932;2022-11-03T13:22:49;14.40;99.90
53653;DHT22;39553;52.954;5.932;2022-11-03T13:25:15;14.40;99.90
53653;DHT22;39553;52.954;5.932;2022-11-03T13:27:41;14.40;99.90
53653;DHT22;39553;52.954;5.932;2022-11-03T13:30:06;14.40;99.90
53653;DHT22;39553;52.954;5.932;2022-11-03T13:32:32;14.40;99.90
53653;DHT22;39553;52.954;5.932;2022-11-03T13:34:58;14.40;99.90
53653;DHT22;39553;52.954;5.932;2022-11-03T13:37:23;14.40;99.90
53653;DHT22;39553;52.954;5.932;2022-11-03T13:39:49;14.40;99.90
53653;DHT22;39553;52.954;5.932;2022-11-03T13:42:15;14.40;99.90
53653;DHT22;39553;52.954;5.932;2022-11-03T13:44:40;14.40;99.90
53653;DHT22;39553;52.954;5.932;2022-11-03T13:47:06;14.40;99.90
53653;DHT22;39553;52.954;5.932;2022-11-03T13:49:31;14.40;99.90
53653;DHT22;39553;52.954;5.932;2022-11-03T13:51:58;14.40;99.90
53653;DHT22;39553;52.954;5.932;2022-11-03T13:54:23;14.40;99.90
53653;DHT22;39553;52.954;5.932;2022-11-03T13:56:49;14.30;99.90
53653;DHT22;39553;52.954;5.932;2022-11-03T13:59:15;14.30;99.90
53653;DHT22;39553;52.954;5.932;2022-11-03T14:01:41;14.20;99.90
53653;DHT22;39553;52.954;5.932;2022-11-03T14:04:07;14.20;99.90
53653;DHT22;39553;52.954;5.932;2022-11-03T14:06:32;14.20;99.90
53653;DHT22;39553;52.954;5.932;2022-11-03T14:08:58;14.20;99.90
53653;DHT22;39553;52.954;5.932;2022-11-03T14:11:23;14.20;99.90
53653;DHT22;39553;52.954;5.932;2022-11-03T14:14:08;14.20;99.90
53653;DHT22;39553;52.954;5.932;2022-11-03T14:16:33;14.10;99.90
53653;DHT22;39553;52.954;5.932;2022-11-03T14:18:59;14.10;99.90
53653;DHT22;39553;52.954;5.932;2022-11-03T14:21:24;14.10;99.90
53653;DHT22;39553;52.954;5.932;2022-11-03T14:23:50;14.10;99.90
53653;DHT22;39553;52.954;5.932;2022-11-03T14:26:16;14.00;99.90
53653;DHT22;39553;52.954;5.932;2022-11-03T14:28:41;14.10;99.90
53653;DHT22;39553;52.954;5.932;2022-11-03T14:31:07;14.20;99.90
53653;DHT22;39553;52.954;5.932;2022-11-03T14:33:33;14.30;99.90
53653;DHT22;39553;52.954;5.932;2022-11-03T14:35:58;14.30;99.90
53653;DHT22;39553;52.954;5.932;2022-11-03T14:38:24;14.40;99.90
53653;DHT22;39553;52.954;5.932;2022-11-03T14:40:49;14.40;99.90
53653;DHT22;39553;52.954;5.932;2022-11-03T14:43:34;14.30;99.90
53653;DHT22;39553;52.954;5.932;2022-11-03T14:45:59;14.30;99.90
53653;DHT22;39553;52.954;5.932;2022-11-03T14:48:25;14.30;99.90
53653;DHT22;39553;52.954;5.932;2022-11-03T14:50:51;14.20;99.90
53653;DHT22;39553;52.954;5.932;2022-11-03T14:53:18;14.20;99.90
53653;DHT22;39553;52.954;5.932;2022-11-03T14:55:43;14.20;99.90
53653;DHT22;39553;52.954;5.932;2022-11-03T14:58:09;14.20;99.90
53653;DHT22;39553;52.954;5.932;2022-11-03T15:00:35;14.20;99.90
53653;DHT22;39553;52.954;5.932;2022-11-03T15:03:00;14.10;99.90
53653;DHT22;39553;52.954;5.932;2022-11-03T15:05:26;14.00;99.90
53653;DHT22;39553;52.954;5.932;2022-11-03T15:08:11;14.00;99.90
53653;DHT22;39553;52.954;5.932;2022-11-03T15:10:37;14.00;99.90
53653;DHT22;39553;52.954;5.932;2022-11-03T15:13:02;13.90;99.90
53653;DHT22;39553;52.954;5.932;2022-11-03T15:15:28;13.90;99.90
53653;DHT22;39553;52.954;5.932;2022-11-03T15:17:53;13.90;99.90
53653;DHT22;39553;52.954;5.932;2022-11-03T15:20:19;13.90;99.90
53653;DHT22;39553;52.954;5.932;2022-11-03T15:22:45;13.90;99.90
53653;DHT22;39553;52.954;5.932;2022-11-03T15:25:10;13.90;99.90
53653;DHT22;39553;52.954;5.932;2022-11-03T15:27:36;13.80;99.90
53653;DHT22;39553;52.954;5.932;2022-11-03T15:30:04;13.80;99.90
53653;DHT22;39553;52.954;5.932;2022-11-03T15:32:29;13.80;99.90
53653;DHT22;39553;52.954;5.932;2022-11-03T15:34:55;13.70;99.90
53653;DHT22;39553;52.954;5.932;2022-11-03T15:37:21;13.70;99.90
53653;DHT22;39553;52.954;5.932;2022-11-03T15:39:46;13.60;99.90
53653;DHT22;39553;52.954;5.932;2022-11-03T15:42:12;13.60;99.90
53653;DHT22;39553;52.954;5.932;2022-11-03T15:44:37;13.60;99.90
53653;DHT22;39553;52.954;5.932;2022-11-03T15:47:03;13.60;99.90
53653;DHT22;39553;52.954;5.932;2022-11-03T15:49:29;13.60;99.90
53653;DHT22;39553;52.954;5.932;2022-11-03T15:51:54;13.50;99.90
53653;DHT22;39553;52.954;5.932;2022-11-03T15:54:20;13.60;99.90
53653;DHT22;39553;52.954;5.932;2022-11-03T15:56:45;13.50;99.90
53653;DHT22;39553;52.954;5.932;2022-11-03T15:59:11;13.50;99.90
53653;DHT22;39553;52.954;5.932;2022-11-03T16:01:37;13.50;99.90
53653;DHT22;39553;52.954;5.932;2022-11-03T16:04:02;13.40;99.90
53653;DHT22;39553;52.954;5.932;2022-11-03T16:06:28;13.40;99.90
53653;DHT22;39553;52.954;5.932;2022-11-03T16:08:53;13.40;99.90
53653;DHT22;39553;52.954;5.932;2022-11-03T16:11:19;13.40;99.90
53653;DHT22;39553;52.954;5.932;2022-11-03T16:13:45;13.40;99.90
53653;DHT22;39553;52.954;5.932;2022-11-03T16:16:10;13.40;99.90
53653;DHT22;39553;52.954;5.932;2022-11-03T16:18:36;13.40;99.90
53653;DHT22;39553;52.954;5.932;2022-11-03T16:21:02;13.30;99.90
53653;DHT22;39553;52.954;5.932;2022-11-03T16:23:28;13.30;99.90
53653;DHT22;39553;52.954;5.932;2022-11-03T16:25:54;13.30;99.90
53653;DHT22;39553;52.954;5.932;2022-11-03T16:28:19;13.20;99.90
53653;DHT22;39553;52.954;5.932;2022-11-03T16:30:45;13.20;99.90
53653;DHT22;39553;52.954;5.932;2022-11-03T16:33:10;13.20;99.90